createdAt,value
2022-10-29T00:01:13.269Z,1.48
2022-10-29T00:03:43.196Z,1.48
2022-10-29T00:06:13.384Z,1.42
2022-10-29T00:08:42.814Z,2.10
2022-10-29T00:11:12.959Z,3.53
2022-10-29T00:13:42.433Z,3.42
2022-10-29T00:16:12.576Z,2.85
2022-10-29T00:18:42.578Z,1.67
2022-10-29T00:21:14.104Z,1.75
2022-10-29T00:26:11.067Z,1.58
2022-10-29T00:28:39.507Z,1.50
2022-10-29T00:31:10.972Z,1.88
2022-10-29T00:33:39.242Z,1.70
2022-10-29T00:36:14.910Z,1.42
2022-10-29T00:38:47.904Z,1.70
2022-10-29T00:41:18.812Z,1.70
2022-10-29T00:43:50.037Z,1.65
2022-10-29T00:46:23.260Z,1.77
2022-10-29T00:48:56.181Z,1.58
2022-10-29T00:51:27.036Z,1.60
2022-10-29T00:53:59.592Z,1.50
2022-10-29T00:56:30.678Z,1.33
2022-10-29T00:58:59.474Z,1.60
2022-10-29T01:01:28.519Z,1.33
2022-10-29T01:03:56.916Z,1.60
2022-10-29T01:06:27.640Z,2.10
2022-10-29T01:08:55.878Z,1.90
2022-10-29T01:11:36.348Z,1.45
2022-10-29T01:14:19.301Z,1.65
2022-10-29T01:16:54.826Z,1.40
2022-10-29T01:19:42.130Z,1.48
2022-10-29T01:22:17.816Z,1.45
2022-10-29T01:25:13.194Z,1.65
2022-10-29T01:28:04.399Z,1.52
2022-10-29T01:30:56.061Z,1.92
2022-10-29T01:33:35.517Z,1.75
2022-10-29T01:36:13.564Z,1.55
2022-10-29T01:38:50.179Z,1.95
2022-10-29T01:41:25.355Z,1.60
2022-10-29T01:43:58.703Z,1.83
2022-10-29T01:46:37.809Z,1.60
2022-10-29T01:49:11.956Z,1.45
2022-10-29T01:51:41.873Z,1.30
2022-10-29T01:54:12.567Z,1.55
2022-10-29T01:56:40.813Z,1.60
2022-10-29T01:59:22.980Z,1.52
2022-10-29T02:02:10.259Z,1.55
2022-10-29T02:04:58.986Z,1.40
2022-10-29T02:07:42.618Z,1.40
2022-10-29T02:10:17.325Z,1.58
2022-10-29T02:12:50.341Z,1.60
2022-10-29T02:15:21.984Z,1.40
2022-10-29T02:20:20.450Z,1.92
2022-10-29T02:22:48.722Z,1.45
2022-10-29T02:25:17.126Z,1.50
2022-10-29T02:27:45.392Z,1.25
2022-10-29T02:30:13.972Z,1.33
2022-10-29T02:32:42.256Z,1.73
2022-10-29T02:35:12.373Z,1.48
2022-10-29T02:37:40.631Z,1.35
2022-10-29T02:40:10.182Z,1.40
2022-10-29T02:42:38.566Z,1.42
2022-10-29T02:45:07.805Z,1.67
2022-10-29T02:47:36.209Z,1.20
2022-10-29T02:50:04.611Z,1.50
2022-10-29T02:52:34.456Z,1.30
2022-10-29T02:55:02.693Z,1.27
2022-10-29T02:57:32.195Z,1.58
2022-10-29T03:00:00.533Z,1.63
2022-10-29T03:02:28.803Z,1.75
2022-10-29T03:04:57.119Z,1.40
2022-10-29T03:07:25.321Z,1.40
2022-10-29T03:09:54.905Z,1.65
2022-10-29T03:12:23.079Z,1.50
2022-10-29T03:14:51.357Z,1.35
2022-10-29T03:17:19.537Z,1.52
2022-10-29T03:19:47.703Z,1.40
2022-10-29T03:22:15.928Z,1.40
2022-10-29T03:24:44.541Z,1.50
2022-10-29T03:27:14.445Z,1.48
2022-10-29T03:29:42.601Z,1.48
2022-10-29T03:32:10.840Z,1.67
2022-10-29T03:34:39.030Z,1.60
2022-10-29T03:37:07.260Z,1.50
2022-10-29T03:39:35.504Z,1.42
2022-10-29T03:42:04.121Z,1.52
2022-10-29T03:44:34.592Z,1.50
2022-10-29T03:47:03.906Z,1.48
2022-10-29T03:49:32.509Z,1.58
2022-10-29T03:52:00.704Z,1.30
2022-10-29T03:54:28.909Z,1.30
2022-10-29T03:56:57.163Z,1.40
2022-10-29T03:59:26.069Z,1.20
2022-10-29T04:01:56.468Z,1.52
2022-10-29T04:04:24.944Z,1.42
2022-10-29T04:06:53.237Z,1.70
2022-10-29T04:09:21.725Z,1.65
2022-10-29T04:11:50.221Z,1.42
2022-10-29T04:14:18.436Z,1.52
2022-10-29T04:16:46.908Z,1.33
2022-10-29T04:19:16.469Z,1.95
2022-10-29T04:30:10.604Z,1.30
2022-10-29T04:32:38.888Z,1.40
2022-10-29T04:35:09.967Z,1.33
2022-10-29T04:37:38.202Z,1.30
2022-10-29T04:40:07.372Z,1.20
2022-10-29T04:42:37.601Z,1.40
2022-10-29T04:45:06.571Z,1.73
2022-10-29T04:47:35.268Z,1.70
2022-10-29T04:50:03.518Z,1.70
2022-10-29T04:52:33.523Z,1.50
2022-10-29T04:55:01.716Z,1.65
2022-10-29T04:57:29.918Z,1.77
2022-10-29T04:59:58.111Z,1.48
2022-10-29T05:02:26.301Z,1.48
2022-10-29T05:04:54.492Z,1.17
2022-10-29T05:07:22.789Z,1.30
2022-10-29T05:09:52.590Z,1.42
2022-10-29T05:12:20.770Z,1.35
2022-10-29T05:14:49.000Z,1.55
2022-10-29T05:17:17.210Z,1.40
2022-10-29T05:19:46.225Z,1.50
2022-10-29T05:22:14.707Z,1.40
2022-10-29T05:24:43.230Z,1.60
2022-10-29T05:27:12.761Z,1.38
2022-10-29T05:29:40.986Z,1.45
2022-10-29T05:32:09.161Z,1.50
2022-10-29T05:34:39.447Z,1.60
2022-10-29T05:39:37.159Z,1.67
2022-10-29T05:42:05.504Z,1.60
2022-10-29T05:44:35.073Z,1.30
2022-10-29T05:47:03.333Z,1.65
2022-10-29T05:49:31.535Z,1.60
2022-10-29T05:51:59.685Z,1.42
2022-10-29T05:54:27.857Z,1.60
2022-10-29T05:56:56.016Z,1.23
2022-10-29T05:59:24.227Z,1.33
2022-10-29T06:01:54.605Z,1.20
2022-10-29T06:04:22.985Z,1.50
2022-10-29T06:06:51.411Z,1.15
2022-10-29T06:09:20.018Z,1.20
2022-10-29T06:11:48.934Z,1.27
2022-10-29T06:14:17.329Z,1.63
2022-10-29T06:16:45.971Z,1.10
2022-10-29T06:19:16.022Z,1.27
2022-10-29T06:21:44.403Z,1.55
2022-10-29T06:24:13.658Z,1.50
2022-10-29T06:26:41.905Z,1.60
2022-10-29T06:29:10.065Z,1.20
2022-10-29T06:31:38.258Z,1.50
2022-10-29T06:34:06.476Z,1.70
2022-10-29T06:36:36.169Z,1.20
2022-10-29T06:39:04.361Z,1.65
2022-10-29T06:41:32.501Z,2.03
2022-10-29T06:44:00.711Z,1.42
2022-10-29T06:46:28.925Z,1.52
2022-10-29T06:48:57.336Z,1.65
2022-10-29T06:51:25.731Z,1.65
2022-10-29T06:53:55.822Z,1.58
2022-10-29T06:56:24.335Z,1.50
2022-10-29T06:58:53.050Z,1.67
2022-10-29T07:01:21.432Z,1.50
2022-10-29T07:03:50.807Z,1.65
2022-10-29T07:06:19.070Z,1.25
2022-10-29T07:08:47.716Z,1.60
2022-10-29T07:11:17.700Z,1.52
2022-10-29T07:13:46.241Z,1.60
2022-10-29T07:16:14.492Z,1.33
2022-10-29T07:18:42.655Z,1.33
2022-10-29T07:21:11.217Z,1.40
2022-10-29T07:23:39.630Z,1.58
2022-10-29T07:26:08.261Z,1.40
2022-10-29T07:28:38.032Z,1.23
2022-10-29T07:31:07.790Z,1.40
2022-10-29T07:33:36.014Z,1.35
2022-10-29T07:36:04.207Z,1.35
2022-10-29T07:38:32.481Z,1.30
2022-10-29T07:41:00.645Z,1.38
2022-10-29T07:43:28.884Z,1.50
2022-10-29T07:45:58.648Z,1.40
2022-10-29T07:48:26.925Z,1.70
2022-10-29T07:50:55.081Z,1.42
2022-10-29T07:53:23.260Z,1.35
2022-10-29T07:55:54.780Z,1.40
2022-10-29T07:58:23.853Z,1.67
2022-10-29T08:00:52.493Z,1.63
2022-10-29T08:03:22.403Z,1.17
2022-10-29T08:05:56.198Z,1.52
2022-10-29T08:08:24.869Z,1.25
2022-10-29T08:10:53.072Z,1.40
2022-10-29T08:13:21.251Z,1.50
2022-10-29T08:15:49.392Z,1.80
2022-10-29T08:18:19.469Z,1.60
2022-10-29T08:20:49.019Z,1.70
2022-10-29T08:23:17.297Z,1.65
2022-10-29T08:25:46.594Z,1.83
2022-10-29T08:28:16.391Z,1.55
2022-10-29T08:30:49.782Z,1.73
2022-10-29T08:33:18.148Z,1.70
2022-10-29T08:35:46.300Z,1.73
2022-10-29T08:38:15.955Z,1.45
2022-10-29T08:40:59.108Z,1.50
2022-10-29T08:44:15.477Z,1.42
2022-10-29T08:46:47.849Z,1.42
2022-10-29T08:49:20.845Z,2.10
2022-10-29T08:51:55.528Z,1.65
2022-10-29T08:54:31.828Z,1.50
2022-10-29T08:57:06.680Z,1.80
2022-10-29T08:59:41.390Z,1.75
2022-10-29T09:02:16.140Z,1.40
2022-10-29T09:04:44.450Z,1.65
2022-10-29T09:07:38.906Z,1.40
2022-10-29T09:10:17.947Z,1.77
2022-10-29T09:12:55.283Z,1.55
2022-10-29T09:15:37.807Z,1.65
2022-10-29T09:18:18.538Z,1.15
2022-10-29T09:20:54.164Z,1.17
2022-10-29T09:23:30.162Z,1.40
2022-10-29T09:26:04.292Z,1.63
2022-10-29T09:28:45.300Z,1.13
2022-10-29T09:31:26.837Z,1.50
2022-10-29T09:34:01.716Z,1.35
2022-10-29T09:36:32.274Z,1.50
2022-10-29T09:39:03.900Z,1.48
2022-10-29T09:41:35.320Z,1.40
2022-10-29T09:44:09.039Z,1.20
2022-10-29T09:46:46.044Z,1.13
2022-10-29T09:49:25.459Z,1.30
2022-10-29T09:51:57.847Z,1.33
2022-10-29T09:54:28.285Z,1.60
2022-10-29T09:57:00.606Z,1.55
2022-10-29T09:59:35.150Z,1.52
2022-10-29T10:02:04.109Z,1.60
2022-10-29T10:04:38.785Z,1.55
2022-10-29T10:07:08.931Z,1.58
2022-10-29T10:09:55.455Z,1.40
2022-10-29T10:12:27.856Z,1.80
2022-10-29T10:15:08.442Z,1.63
2022-10-29T10:17:58.486Z,1.48
2022-10-29T10:20:36.696Z,1.50
2022-10-29T10:23:24.242Z,1.70
2022-10-29T10:25:53.541Z,1.40
2022-10-29T10:28:25.356Z,1.40
2022-10-29T10:31:12.675Z,1.30
2022-10-29T10:33:52.289Z,1.50
2022-10-29T10:36:23.701Z,1.50
2022-10-29T10:38:53.780Z,1.60
2022-10-29T10:41:28.617Z,1.70
2022-10-29T10:44:01.729Z,1.50
2022-10-29T10:46:35.180Z,1.40
2022-10-29T10:49:06.924Z,1.60
2022-10-29T10:51:37.273Z,1.50
2022-10-29T10:54:24.460Z,1.50
2022-10-29T10:56:59.854Z,4.65
2022-10-29T10:59:43.528Z,1.80
2022-10-29T11:02:23.557Z,1.35
2022-10-29T11:05:02.140Z,1.50
2022-10-29T11:07:37.008Z,1.55
2022-10-29T11:10:08.748Z,1.77
2022-10-29T11:12:43.386Z,2.88
2022-10-29T11:15:17.740Z,3.30
2022-10-29T11:17:54.368Z,3.15
2022-10-29T11:20:28.082Z,3.80
2022-10-29T11:23:09.996Z,3.35
2022-10-29T11:25:44.869Z,3.65
2022-10-29T11:28:24.644Z,3.92
2022-10-29T11:31:00.921Z,4.00
2022-10-29T11:33:38.924Z,3.53
2022-10-29T11:36:13.978Z,4.07
2022-10-29T11:38:45.988Z,3.70
2022-10-29T11:41:27.636Z,3.85
2022-10-29T11:43:56.417Z,4.28
2022-10-29T11:46:34.183Z,4.10
2022-10-29T11:49:18.221Z,4.10
2022-10-29T11:51:53.726Z,4.10
2022-10-29T11:54:38.884Z,4.20
2022-10-29T11:57:16.745Z,4.10
2022-10-29T12:00:10.654Z,4.30
2022-10-29T12:03:09.876Z,4.20
2022-10-29T12:05:44.286Z,3.75
2022-10-29T12:08:31.385Z,3.78
2022-10-29T12:11:07.683Z,4.43
2022-10-29T12:13:46.874Z,4.10
2022-10-29T12:16:32.588Z,4.20
2022-10-29T12:19:11.906Z,3.72
2022-10-29T12:21:48.386Z,4.20
2022-10-29T12:24:31.135Z,4.00
2022-10-29T12:27:06.003Z,4.60
2022-10-29T12:29:44.246Z,4.38
2022-10-29T12:32:18.580Z,4.72
2022-10-29T12:34:53.997Z,4.30
2022-10-29T12:37:30.605Z,4.57
2022-10-29T12:40:02.840Z,4.80
2022-10-29T12:42:31.544Z,4.57
2022-10-29T12:45:13.000Z,4.90
2022-10-29T12:47:50.153Z,4.57
2022-10-29T12:50:34.912Z,4.45
2022-10-29T12:53:11.405Z,5.18
2022-10-29T12:55:40.498Z,5.15
2022-10-29T12:58:46.130Z,5.20
2022-10-29T13:02:11.823Z,5.72
2022-10-29T13:04:38.175Z,6.28
2022-10-29T13:07:24.607Z,5.25
2022-10-29T13:10:34.466Z,5.70
2022-10-29T13:13:05.728Z,4.85
2022-10-29T13:15:38.012Z,5.35
2022-10-29T13:18:16.351Z,5.00
2022-10-29T13:20:48.752Z,5.30
2022-10-29T13:23:37.906Z,5.03
2022-10-29T13:26:07.194Z,5.57
2022-10-29T13:28:54.713Z,5.03
2022-10-29T13:31:52.788Z,5.32
2022-10-29T13:34:58.501Z,5.57
2022-10-29T13:37:58.112Z,4.88
2022-10-29T13:41:03.356Z,5.50
2022-10-29T13:43:34.761Z,5.53
2022-10-29T13:46:45.925Z,5.10
2022-10-29T13:49:23.625Z,5.65
2022-10-29T13:51:58.458Z,5.43
2022-10-29T13:54:33.184Z,6.25
2022-10-29T13:57:04.247Z,6.07
2022-10-29T13:59:41.171Z,6.15
2022-10-29T14:02:33.291Z,6.60
2022-10-29T14:05:08.498Z,6.55
2022-10-29T14:07:45.376Z,6.25
2022-10-29T14:10:19.864Z,6.85
2022-10-29T14:12:50.206Z,7.05
2022-10-29T14:15:20.062Z,6.20
2022-10-29T14:17:48.268Z,6.57
2022-10-29T14:20:26.271Z,6.75
2022-10-29T14:22:55.224Z,7.07
2022-10-29T14:25:36.875Z,6.55
2022-10-29T14:28:21.027Z,6.35
2022-10-29T14:31:01.356Z,6.85
2022-10-29T14:33:31.697Z,6.70
2022-10-29T14:36:07.021Z,6.85
2022-10-29T14:38:42.886Z,6.18
2022-10-29T14:41:12.508Z,6.22
2022-10-29T14:43:41.193Z,6.50
2022-10-29T14:46:22.826Z,6.40
2022-10-29T14:48:58.315Z,5.85
2022-10-29T14:51:27.955Z,6.32
2022-10-29T14:54:01.462Z,5.13
2022-10-29T14:56:35.097Z,5.53
2022-10-29T14:59:14.640Z,5.45
2022-10-29T15:01:54.030Z,5.25
2022-10-29T15:04:31.169Z,5.38
2022-10-29T15:07:26.034Z,5.60
2022-10-29T15:10:18.801Z,5.63
2022-10-29T15:12:47.893Z,5.22
2022-10-29T15:15:33.897Z,4.95
2022-10-29T15:18:06.632Z,5.03
2022-10-29T15:20:44.985Z,4.95
2022-10-29T15:23:21.956Z,5.13
2022-10-29T15:25:52.288Z,4.88
2022-10-29T15:28:24.819Z,4.60
2022-10-29T15:30:54.915Z,4.68
2022-10-29T15:33:28.887Z,4.20
2022-10-29T15:35:58.923Z,4.60
2022-10-29T15:39:03.862Z,4.22
2022-10-29T15:41:36.537Z,4.32
2022-10-29T15:44:04.934Z,4.72
2022-10-29T15:46:37.050Z,4.43
2022-10-29T15:49:15.861Z,4.45
2022-10-29T15:51:44.428Z,4.25
2022-10-29T15:54:14.913Z,4.18
2022-10-29T15:56:43.367Z,4.33
2022-10-29T15:59:13.914Z,4.13
2022-10-29T16:01:42.508Z,3.90
2022-10-29T16:04:12.438Z,4.53
2022-10-29T16:06:40.620Z,4.03
2022-10-29T16:09:16.123Z,4.55
2022-10-29T16:11:44.518Z,4.38
2022-10-29T16:14:12.838Z,4.60
2022-10-29T16:16:41.358Z,4.40
2022-10-29T16:19:09.584Z,4.30
2022-10-29T16:21:39.494Z,4.18
2022-10-29T16:24:10.775Z,4.00
2022-10-29T16:26:38.973Z,4.63
2022-10-29T16:29:07.257Z,4.20
2022-10-29T16:31:35.535Z,4.32
2022-10-29T16:34:05.795Z,4.00
2022-10-29T16:36:34.064Z,4.20
2022-10-29T16:39:04.678Z,4.15
2022-10-29T16:41:34.847Z,4.50
2022-10-29T16:44:03.175Z,4.40
2022-10-29T16:46:31.706Z,4.20
2022-10-29T16:49:00.024Z,4.07
2022-10-29T16:51:28.406Z,4.45
2022-10-29T16:53:56.634Z,4.47
2022-10-29T16:56:26.352Z,4.75
2022-10-29T16:59:01.812Z,4.95
2022-10-29T17:01:30.670Z,5.32
2022-10-29T17:03:58.944Z,6.85
2022-10-29T17:06:27.278Z,6.72
2022-10-29T17:08:55.458Z,10.55
2022-10-29T17:11:25.187Z,13.63
2022-10-29T17:13:53.364Z,9.57
2022-10-29T17:16:21.615Z,7.70
2022-10-29T17:18:52.051Z,7.47
2022-10-29T17:21:20.365Z,6.47
2022-10-29T17:23:48.670Z,6.32
2022-10-29T17:26:17.995Z,6.53
2022-10-29T17:28:47.832Z,6.10
2022-10-29T17:31:16.297Z,6.80
2022-10-29T17:33:44.775Z,4.97
2022-10-29T17:36:15.208Z,4.40
2022-10-29T17:38:43.631Z,3.92
2022-10-29T17:41:11.972Z,3.70
2022-10-29T17:43:40.278Z,3.72
2022-10-29T17:46:10.448Z,3.33
2022-10-29T17:48:39.556Z,3.30
2022-10-29T17:51:08.696Z,3.83
2022-10-29T17:53:38.788Z,5.18
2022-10-29T17:56:07.737Z,5.85
2022-10-29T17:58:36.085Z,5.22
2022-10-29T18:01:05.851Z,5.03
2022-10-29T18:03:35.879Z,5.45
2022-10-29T18:06:05.193Z,4.75
2022-10-29T18:08:35.636Z,5.53
2022-10-29T18:11:05.400Z,5.00
2022-10-29T18:13:35.584Z,5.28
2022-10-29T18:16:03.915Z,5.40
2022-10-29T18:18:48.130Z,5.15
2022-10-29T18:21:26.348Z,5.47
2022-10-29T18:23:54.692Z,5.43
2022-10-29T18:26:28.990Z,5.40
2022-10-29T18:28:58.426Z,5.47
2022-10-29T18:31:30.571Z,5.25
2022-10-29T18:34:01.232Z,5.03
2022-10-29T18:36:29.583Z,5.63
2022-10-29T18:38:59.212Z,6.53
2022-10-29T18:41:27.768Z,6.35
2022-10-29T18:43:56.805Z,6.72
2022-10-29T18:46:25.285Z,6.53
2022-10-29T18:48:54.406Z,7.53
2022-10-29T18:51:27.448Z,6.70
2022-10-29T18:53:57.890Z,7.15
2022-10-29T18:56:27.932Z,6.85
2022-10-29T18:58:57.489Z,7.50
2022-10-29T19:01:28.310Z,7.43
2022-10-29T19:03:58.255Z,8.10
2022-10-29T19:06:29.864Z,7.63
2022-10-29T19:11:27.934Z,7.75
2022-10-29T19:13:58.285Z,8.48
2022-10-29T19:16:27.587Z,7.95
2022-10-29T19:18:57.383Z,8.32
2022-10-29T19:21:28.192Z,8.70
2022-10-29T19:23:58.249Z,8.27
2022-10-29T19:26:27.890Z,7.93
2022-10-29T19:28:57.162Z,8.27
2022-10-29T19:31:28.097Z,8.23
2022-10-29T19:33:58.801Z,7.85
2022-10-29T19:36:30.610Z,8.35
2022-10-29T19:39:00.529Z,7.95
2022-10-29T19:41:29.445Z,7.72
2022-10-29T19:44:02.026Z,7.88
2022-10-29T19:46:30.909Z,7.65
2022-10-29T19:49:00.722Z,7.93
2022-10-29T19:51:30.520Z,7.47
2022-10-29T19:54:02.040Z,7.88
2022-10-29T19:58:58.563Z,4.15
2022-10-29T20:01:26.846Z,3.97
2022-10-29T20:03:55.099Z,3.17
2022-10-29T20:06:23.572Z,3.35
2022-10-29T20:08:53.205Z,2.97
2022-10-29T20:11:21.490Z,3.00
2022-10-29T20:13:49.674Z,3.33
2022-10-29T20:16:20.302Z,2.80
2022-10-29T20:18:49.193Z,2.63
2022-10-29T20:21:17.505Z,2.85
2022-10-29T20:23:46.091Z,3.10
2022-10-29T20:26:15.760Z,2.83
2022-10-29T20:28:44.770Z,3.05
2022-10-29T20:31:30.680Z,3.20
2022-10-29T20:34:01.867Z,2.90
2022-10-29T20:36:32.677Z,3.10
2022-10-29T20:39:01.405Z,3.30
2022-10-29T20:41:31.328Z,3.53
2022-10-29T20:44:01.324Z,3.20
2022-10-29T20:46:29.967Z,2.90
2022-10-29T20:48:59.357Z,2.72
2022-10-29T20:51:28.203Z,3.00
2022-10-29T20:53:56.813Z,2.58
2022-10-29T20:56:26.811Z,3.83
2022-10-29T20:58:56.461Z,3.78
2022-10-29T21:01:25.915Z,2.92
2022-10-29T21:03:54.295Z,3.80
2022-10-29T21:06:22.775Z,3.25
2022-10-29T21:08:52.591Z,2.70
2022-10-29T21:11:21.993Z,2.88
2022-10-29T21:13:51.059Z,2.70
2022-10-29T21:16:22.077Z,2.80
2022-10-29T21:18:53.042Z,2.30
2022-10-29T21:21:21.689Z,2.65
2022-10-29T21:23:50.134Z,2.47
2022-10-29T21:26:20.537Z,2.90
2022-10-29T21:28:49.002Z,2.90
2022-10-29T21:31:17.514Z,2.70
2022-10-29T21:33:49.869Z,2.70
2022-10-29T21:36:18.980Z,2.53
2022-10-29T21:38:48.140Z,3.08
2022-10-29T21:41:16.603Z,2.70
2022-10-29T21:43:45.423Z,3.15
2022-10-29T21:46:13.715Z,3.15
2022-10-29T21:48:41.916Z,2.97
2022-10-29T21:51:15.096Z,3.60
2022-10-29T21:53:43.599Z,3.80
2022-10-29T21:56:13.923Z,4.70
2022-10-29T21:58:42.198Z,4.20
2022-10-29T22:01:12.863Z,4.68
2022-10-29T22:03:42.880Z,4.90
2022-10-29T22:06:15.295Z,4.60
2022-10-29T22:08:44.122Z,4.80
2022-10-29T22:11:13.144Z,4.97
2022-10-29T22:13:41.676Z,5.13
2022-10-29T22:16:10.651Z,5.28
2022-10-29T22:18:39.548Z,5.25
2022-10-29T22:21:09.984Z,4.72
2022-10-29T22:23:43.426Z,4.88
2022-10-29T22:26:11.914Z,4.78
2022-10-29T22:28:40.215Z,3.92
2022-10-29T22:31:09.016Z,4.07
2022-10-29T22:33:37.616Z,4.38
2022-10-29T22:36:08.681Z,3.95
2022-10-29T22:38:37.438Z,4.20
2022-10-29T22:41:09.685Z,4.18
2022-10-29T22:43:38.529Z,3.80
2022-10-29T22:46:08.435Z,3.92
2022-10-29T22:48:37.180Z,4.40
2022-10-29T22:51:06.871Z,4.15
2022-10-29T22:53:35.682Z,4.18
2022-10-29T22:56:04.660Z,3.75
2022-10-29T22:58:34.803Z,3.70
2022-10-29T23:01:05.891Z,3.80
2022-10-29T23:03:39.499Z,3.58
2022-10-29T23:06:10.586Z,3.80
2022-10-29T23:08:39.081Z,3.58
2022-10-29T23:11:08.728Z,3.42
2022-10-29T23:13:38.332Z,3.47
2022-10-29T23:16:07.684Z,3.10
2022-10-29T23:18:35.836Z,3.28
2022-10-29T23:21:05.440Z,3.38
2022-10-29T23:23:34.289Z,3.80
2022-10-29T23:26:04.086Z,3.17
2022-10-29T23:28:34.593Z,3.03
2022-10-29T23:31:06.085Z,3.50
2022-10-29T23:33:35.089Z,3.45
2022-10-29T23:36:04.511Z,3.00
2022-10-29T23:38:33.407Z,2.70
2022-10-29T23:41:02.690Z,3.08
2022-10-29T23:43:31.565Z,3.10
2022-10-29T23:46:00.019Z,3.00
2022-10-29T23:48:29.852Z,3.25
2022-10-29T23:50:58.302Z,2.92
2022-10-29T23:53:26.583Z,3.00
2022-10-29T23:55:54.806Z,2.60
2022-10-29T23:58:23.002Z,3.00
